Time;durP1;ratioP1;P1;durP2;ratioP2;P2;SDS_P1;SDS_P2;PMS_P1;PMS_P2;Temp;Humidity;BMP_temperature;BMP_pressure;BME280_temperature;BME280_humidity;BME280_pressure;Samples;Min_cycle;Max_cycle;Signal;HPM_P1;HPM_P2
2021/12/06 00:00:11;;;;;;;33.90;25.00;;;4.90;99.90;;;;;;4932143;29;20032;-69
2021/12/06 00:02:37;;;;;;;35.60;24.90;;;4.80;99.90;;;;;;4917886;29;20180;-67
2021/12/06 00:05:03;;;;;;;34.87;23.97;;;4.90;99.90;;;;;;4931066;29;20114;-67
2021/12/06 00:07:28;;;;;;;37.60;25.37;;;4.70;99.90;;;;;;4932120;29;20036;-67
2021/12/06 00:09:54;;;;;;;39.07;25.97;;;4.90;99.90;;;;;;4930414;29;20044;-67
2021/12/06 00:12:20;;;;;;;39.57;27.60;;;;;;;;;;4932219;29;20493;-67
2021/12/06 00:14:46;;;;;;;37.33;26.47;;;4.70;99.90;;;;;;4931745;29;20020;-67
2021/12/06 00:17:15;;;;;;;41.60;28.37;;;4.70;99.90;;;;;;4929537;29;20046;-67
2021/12/06 00:19:42;;;;;;;37.77;27.20;;;4.70;99.90;;;;;;4913361;29;20020;-67
2021/12/06 00:22:12;;;;;;;37.67;26.30;;;4.80;99.90;;;;;;4930080;29;20481;-67
2021/12/06 00:24:38;;;;;;;36.10;25.53;;;4.40;99.90;;;;;;4931850;29;20034;-67
2021/12/06 00:27:04;;;;;;;44.73;28.80;;;;;;;;;;4919580;29;20032;-67
2021/12/06 00:29:30;;;;;;;42.63;26.80;;;4.60;99.90;;;;;;4916221;29;20028;-67
2021/12/06 00:31:56;;;;;;;43.90;28.63;;;;;;;;;;4912594;29;20107;-67
2021/12/06 00:34:23;;;;;;;50.10;30.70;;;4.70;99.90;;;;;;4927744;29;20067;-67
2021/12/06 00:37:15;;;;;;;46.17;28.87;;;4.60;99.90;;;;;;4927687;29;20095;-67
2021/12/06 00:39:39;;;;;;;42.63;28.13;;;;;;;;;;4920481;29;20111;-67
2021/12/06 00:42:04;;;;;;;44.90;29.13;;;4.70;99.90;;;;;;4927467;29;20506;-67
2021/12/06 00:44:30;;;;;;;43.13;28.10;;;4.70;99.90;;;;;;4932222;29;20074;-67
2021/12/06 00:46:55;;;;;;;43.47;27.60;;;4.60;99.90;;;;;;4933608;29;20381;-67
2021/12/06 00:49:21;;;;;;;41.23;26.67;;;4.70;99.90;;;;;;4935892;29;20063;-67
2021/12/06 00:51:47;;;;;;;42.90;28.73;;;;;;;;;;4933106;29;20042;-67
2021/12/06 00:54:13;;;;;;;47.83;32.90;;;4.60;99.90;;;;;;4934886;29;20135;-69
2021/12/06 00:56:39;;;;;;;47.57;32.10;;;4.60;99.90;;;;;;4935346;29;20024;-67
2021/12/06 00:59:04;;;;;;;49.50;31.90;;;4.60;99.90;;;;;;4934957;29;20098;-67
2021/12/06 01:01:31;;;;;;;49.67;30.77;;;4.60;99.90;;;;;;4934174;29;20039;-67
2021/12/06 01:03:57;;;;;;;55.60;33.70;;;4.50;99.90;;;;;;4924838;29;20032;-67
2021/12/06 01:06:22;;;;;;;49.80;32.93;;;4.60;99.90;;;;;;4916684;29;20405;-67
2021/12/06 01:08:48;;;;;;;58.43;36.50;;;4.60;99.90;;;;;;4915895;29;20381;-67
2021/12/06 01:11:14;;;;;;;52.43;33.17;;;;;;;;;;4916076;29;20052;-67
2021/12/06 01:13:41;;;;;;;51.83;31.10;;;5.00;99.90;;;;;;4916694;29;20183;-67
2021/12/06 01:16:07;;;;;;;44.97;29.60;;;;;;;;;;4926834;29;20481;-67
2021/12/06 01:18:33;;;;;;;55.40;30.97;;;;;;;;;;4935589;29;20103;-67
2021/12/06 01:23:41;;;;;;;47.50;28.93;;;;;;;;;;4916884;29;20035;-67
2021/12/06 01:42:02;;;;;;;48.10;31.30;;;4.80;99.90;;;;;;4925962;29;20035;-67
2021/12/06 01:44:31;;;;;;;44.03;26.97;;;4.70;99.90;;;;;;4933623;29;20457;-67
2021/12/06 01:46:58;;;;;;;48.97;29.20;;;4.80;99.90;;;;;;4931689;29;20044;-67
2021/12/06 01:49:28;;;;;;;46.53;28.10;;;4.90;99.90;;;;;;4935050;29;20091;-67
2021/12/06 01:51:56;;;;;;;49.80;30.27;;;4.80;99.90;;;;;;4918930;29;20430;-67
2021/12/06 01:54:22;;;;;;;52.03;30.97;;;4.80;99.90;;;;;;4914918;29;20028;-67
2021/12/06 01:56:49;;;;;;;57.10;31.07;;;4.80;99.90;;;;;;4915641;29;20076;-67
2021/12/06 01:59:16;;;;;;;52.83;32.07;;;;;;;;;;4932056;29;20477;-67
2021/12/06 02:01:42;;;;;;;52.67;32.80;;;4.80;99.90;;;;;;4933513;29;20680;-67
2021/12/06 02:04:08;;;;;;;57.73;35.33;;;4.70;99.90;;;;;;4934499;29;20028;-67
2021/12/06 02:06:34;;;;;;;54.23;32.40;;;4.80;99.90;;;;;;4919574;29;20044;-67
2021/12/06 02:09:00;;;;;;;52.23;31.30;;;4.80;99.90;;;;;;4915220;29;20448;-67
2021/12/06 02:11:31;;;;;;;61.23;34.80;;;4.90;99.90;;;;;;4915414;29;20087;-67
2021/12/06 02:14:15;;;;;;;48.47;29.50;;;;;;;;;;4915064;29;20159;-67
2021/12/06 02:16:57;;;;;;;;;;;4.80;99.90;;;;;;4919281;29;20082;-68
2021/12/06 02:19:29;;;;;;;58.03;31.57;;;4.80;99.90;;;;;;4918341;29;20492;-67
2021/12/06 02:21:55;;;;;;;66.63;36.27;;;4.90;99.90;;;;;;4915223;29;20047;-67
2021/12/06 02:24:21;;;;;;;65.53;36.13;;;4.70;99.90;;;;;;4916552;29;20032;-68
2021/12/06 02:26:47;;;;;;;61.07;33.23;;;4.80;99.90;;;;;;4915378;29;20119;-67
2021/12/06 02:29:13;;;;;;;62.03;34.17;;;4.80;99.90;;;;;;4915013;29;20032;-67
2021/12/06 02:31:39;;;;;;;58.17;35.00;;;;;;;;;;4915454;29;20032;-67
2021/12/06 02:34:05;;;;;;;53.20;31.33;;;4.70;99.90;;;;;;4914508;29;20103;-67
2021/12/06 02:36:32;;;;;;;62.83;33.40;;;4.70;99.90;;;;;;4916196;29;20541;-67
2021/12/06 02:38:59;;;;;;;62.47;33.83;;;4.80;99.90;;;;;;4916317;29;20029;-67
2021/12/06 02:41:25;;;;;;;58.33;32.77;;;4.90;99.90;;;;;;4921126;29;20036;-69
2021/12/06 02:43:53;;;;;;;60.23;34.17;;;4.90;99.90;;;;;;4918836;29;20095;-69
2021/12/06 02:46:20;;;;;;;62.13;33.57;;;4.90;99.90;;;;;;4927797;29;20142;-69
2021/12/06 02:48:46;;;;;;;61.33;33.73;;;4.80;99.90;;;;;;4920383;29;20063;-67
2021/12/06 02:51:13;;;;;;;67.40;37.10;;;5.00;99.90;;;;;;4925993;29;20042;-67
2021/12/06 02:53:39;;;;;;;70.67;38.23;;;5.20;99.90;;;;;;4933966;29;20023;-67
2021/12/06 02:56:17;;;;;;;83.53;41.60;;;4.80;99.90;;;;;;4933045;29;20374;-67
2021/12/06 02:58:55;;;;;;;81.10;41.17;;;;;;;;;;4933464;29;20024;-67
2021/12/06 03:01:35;;;;;;;80.53;41.27;;;4.90;99.90;;;;;;4924981;29;20039;-67
2021/12/06 03:04:02;;;;;;;79.30;41.20;;;4.80;99.90;;;;;;4913922;29;20414;-68
2021/12/06 03:06:30;;;;;;;85.27;42.40;;;4.60;99.90;;;;;;4918757;29;20044;-68
2021/12/06 03:09:07;;;;;;;78.87;41.33;;;4.60;99.90;;;;;;4914280;29;20086;-68
2021/12/06 03:11:39;;;;;;;66.57;35.90;;;4.70;99.90;;;;;;4926950;29;20134;-68
2021/12/06 03:14:09;;;;;;;87.50;45.37;;;4.60;99.90;;;;;;4932214;29;20499;-68
2021/12/06 03:16:36;;;;;;;84.60;45.23;;;4.50;99.90;;;;;;4933562;29;20020;-68
2021/12/06 03:19:04;;;;;;;98.07;45.57;;;4.60;99.90;;;;;;4916631;29;20032;-68
2021/12/06 03:21:30;;;;;;;76.90;38.93;;;;;;;;;;4919187;29;20079;-68
2021/12/06 03:23:57;;;;;;;81.50;41.57;;;4.50;99.90;;;;;;4913783;29;20111;-68
2021/12/06 03:26:23;;;;;;;86.47;41.23;;;4.50;99.90;;;;;;4920885;29;20040;-68
2021/12/06 03:28:49;;;;;;;89.03;45.07;;;4.70;99.90;;;;;;4920209;29;20377;-68
2021/12/06 03:31:15;;;;;;;74.10;40.57;;;4.20;99.90;;;;;;4933116;29;20038;-68
2021/12/06 03:33:43;;;;;;;74.97;41.77;;;4.60;99.90;;;;;;4916102;29;20046;-68
2021/12/06 03:36:09;;;;;;;73.40;38.57;;;4.50;99.90;;;;;;4913841;29;20312;-68
2021/12/06 03:38:36;;;;;;;66.37;35.30;;;4.50;99.90;;;;;;4915138;29;20115;-68
2021/12/06 03:41:04;;;;;;;70.20;35.10;;;4.70;99.90;;;;;;4913392;29;20028;-68
2021/12/06 03:43:29;;;;;;;58.53;31.60;;;4.50;99.90;;;;;;4914108;29;20024;-68
2021/12/06 03:45:55;;;;;;;61.63;34.10;;;4.70;99.90;;;;;;4913446;29;20115;-68
2021/12/06 03:48:21;;;;;;;57.90;32.83;;;;;;;;;;4913665;29;20087;-68
2021/12/06 03:50:47;;;;;;;66.23;36.73;;;4.80;99.90;;;;;;4919260;29;20036;-68
2021/12/06 03:53:13;;;;;;;72.73;38.40;;;;;;;;;;4932646;29;20032;-68
2021/12/06 03:55:38;;;;;;;77.87;37.13;;;4.70;99.90;;;;;;4931208;29;20416;-68
2021/12/06 03:58:04;;;;;;;66.23;36.27;;;4.60;99.90;;;;;;4932412;29;20032;-68
2021/12/06 04:00:30;;;;;;;56.43;32.40;;;4.70;99.90;;;;;;4930792;29;20028;-68
2021/12/06 04:02:56;;;;;;;61.83;31.10;;;4.80;99.90;;;;;;4912938;29;20032;-68
2021/12/06 04:05:22;;;;;;;62.20;34.30;;;4.80;99.90;;;;;;4928143;29;20469;-68
2021/12/06 04:07:47;;;;;;;69.33;36.60;;;4.60;99.90;;;;;;4913545;29;20051;-68
2021/12/06 04:10:13;;;;;;;70.97;36.90;;;;;;;;;;4924963;29;20055;-68
2021/12/06 04:12:40;;;;;;;74.10;37.13;;;4.70;99.90;;;;;;4930760;29;20036;-68
2021/12/06 04:15:08;;;;;;;93.80;45.67;;;4.70;99.90;;;;;;4932099;29;20133;-68
2021/12/06 04:17:35;;;;;;;82.63;42.30;;;4.60;99.90;;;;;;4931338;29;20028;-68
2021/12/06 04:20:01;;;;;;;87.47;46.63;;;4.60;99.90;;;;;;4929151;29;20059;-68
2021/12/06 04:22:27;;;;;;;93.53;43.30;;;4.60;99.90;;;;;;4913572;29;20039;-68
2021/12/06 04:24:52;;;;;;;83.40;40.63;;;4.40;99.90;;;;;;4913892;29;20159;-68
2021/12/06 04:27:19;;;;;;;84.97;39.37;;;;;;;;;;4928404;29;20096;-68
2021/12/06 04:29:50;;;;;;;90.07;41.30;;;4.40;99.90;;;;;;4922041;29;20032;-68
2021/12/06 04:32:16;;;;;;;76.37;35.47;;;4.50;99.90;;;;;;4912974;29;20437;-68
2021/12/06 04:34:43;;;;;;;78.53;37.17;;;4.60;99.90;;;;;;4922630;29;20019;-68
2021/12/06 04:37:08;;;;;;;70.07;34.30;;;4.60;99.90;;;;;;4912675;29;20096;-68
2021/12/06 04:39:35;;;;;;;73.40;37.03;;;4.50;99.90;;;;;;4913246;29;20017;-68
2021/12/06 04:42:01;;;;;;;83.43;40.43;;;4.20;99.90;;;;;;4913763;29;20043;-68
2021/12/06 04:44:27;;;;;;;67.00;35.27;;;;;;;;;;4921951;29;20024;-68
2021/12/06 04:46:53;;;;;;;84.70;42.33;;;;;;;;;;4912547;29;20099;-68
2021/12/06 04:49:19;;;;;;;78.57;39.30;;;4.50;99.90;;;;;;4913984;29;20028;-68
2021/12/06 04:51:50;;;;;;;87.23;41.47;;;4.60;99.90;;;;;;4925923;29;20124;-68
2021/12/06 04:54:18;;;;;;;78.67;40.00;;;4.50;99.90;;;;;;4931829;29;20035;-68
2021/12/06 04:56:56;;;;;;;63.37;33.77;;;4.40;99.90;;;;;;4931650;29;20032;-68
2021/12/06 04:59:39;;;;;;;83.33;40.13;;;4.20;99.90;;;;;;4930413;29;20086;-67
2021/12/06 05:02:13;;;;;;;76.50;38.83;;;4.40;99.90;;;;;;4916844;29;20473;-68
2021/12/06 05:04:43;;;;;;;93.33;47.67;;;4.40;99.90;;;;;;4913217;29;20111;-68
2021/12/06 05:07:16;;;;;;;88.67;42.37;;;4.20;99.90;;;;;;4927489;29;20036;-68
2021/12/06 05:09:42;;;;;;;77.03;38.90;;;4.30;99.90;;;;;;4931501;29;20024;-67
2021/12/06 05:12:12;;;;;;;78.70;40.53;;;4.30;99.90;;;;;;4918244;29;20474;-67
2021/12/06 05:14:38;;;;;;;73.13;34.60;;;;;;;;;;4923809;29;20075;-67
2021/12/06 05:17:03;;;;;;;86.00;42.47;;;4.00;99.90;;;;;;4930878;29;20035;-67
2021/12/06 05:19:29;;;;;;;85.87;40.87;;;;;;;;;;4931751;29;20050;-67
2021/12/06 05:21:55;;;;;;;77.70;35.13;;;;;;;;;;4915493;29;20040;-67
2021/12/06 05:24:21;;;;;;;78.77;37.73;;;;;;;;;;4912705;29;20036;-68
2021/12/06 05:26:47;;;;;;;68.83;33.63;;;3.80;99.90;;;;;;4916886;29;20510;-69
2021/12/06 05:29:18;;;;;;;67.13;33.63;;;3.70;99.90;;;;;;4913809;29;20107;-68
2021/12/06 05:31:44;;;;;;;60.63;29.70;;;;;;;;;;4916091;29;20042;-68
2021/12/06 05:34:18;;;;;;;52.13;29.40;;;3.10;99.90;;;;;;4915680;29;20040;-68
2021/12/06 05:36:44;;;;;;;68.00;32.10;;;3.30;99.90;;;;;;4929964;29;20032;-67
2021/12/06 05:39:10;;;;;;;80.13;36.63;;;;;;;;;;4917674;29;20046;-67
2021/12/06 05:41:37;;;;;;;78.43;39.10;;;3.30;99.90;;;;;;4929742;29;20116;-68
2021/12/06 05:44:04;;;;;;;67.97;35.47;;;3.20;99.90;;;;;;4927075;29;20028;-67
2021/12/06 05:46:29;;;;;;;68.63;34.23;;;3.20;99.90;;;;;;4915955;29;20127;-68
2021/12/06 05:48:55;;;;;;;75.33;37.40;;;;;;;;;;4915363;29;20116;-67
2021/12/06 05:51:21;;;;;;;69.63;33.97;;;3.10;99.90;;;;;;4916958;29;20658;-67
2021/12/06 05:53:47;;;;;;;71.27;34.77;;;;;;;;;;4916743;29;20122;-68
2021/12/06 05:56:12;;;;;;;74.20;36.43;;;3.20;99.90;;;;;;4921508;29;20046;-68
2021/12/06 05:58:38;;;;;;;67.93;33.77;;;3.00;99.90;;;;;;4934550;29;20463;-68
2021/12/06 06:01:05;;;;;;;77.23;37.60;;;3.10;99.90;;;;;;4923550;29;20059;-67
2021/12/06 06:03:31;;;;;;;90.10;38.47;;;;;;;;;;4934593;29;20039;-68
2021/12/06 06:05:56;;;;;;;88.23;40.23;;;3.10;99.90;;;;;;4933294;29;20608;-68
2021/12/06 06:08:22;;;;;;;82.93;39.67;;;1.90;99.90;;;;;;4934738;29;20045;-67
2021/12/06 06:10:50;;;;;;;86.57;37.60;;;;;;;;;;4933859;29;20260;-68
2021/12/06 06:13:17;;;;;;;86.40;35.70;;;3.20;99.90;;;;;;4933561;29;20170;-68
2021/12/06 06:15:43;;;;;;;87.37;39.90;;;;;;;;;;4931157;29;20039;-68
2021/12/06 06:18:09;;;;;;;85.60;38.80;;;;;;;;;;4931293;29;20425;-68
2021/12/06 06:20:51;;;;;;;104.27;43.30;;;3.30;99.90;;;;;;4933911;29;20167;-68
2021/12/06 06:23:17;;;;;;;99.53;47.37;;;3.40;99.90;;;;;;4934391;29;20024;-68
2021/12/06 06:25:43;;;;;;;98.73;45.63;;;;;;;;;;4933278;29;20039;-68
2021/12/06 06:28:09;;;;;;;93.53;42.77;;;3.60;99.90;;;;;;4932774;29;20042;-68
2021/12/06 06:30:35;;;;;;;96.60;41.70;;;;;;;;;;4932229;29;20027;-68
2021/12/06 06:33:01;;;;;;;94.43;41.60;;;3.60;99.90;;;;;;4933773;29;20035;-68
2021/12/06 06:35:27;;;;;;;84.03;39.73;;;;;;;;;;4934312;29;20106;-68
2021/12/06 06:37:52;;;;;;;84.20;41.70;;;3.40;99.90;;;;;;4933813;29;20487;-67
2021/12/06 06:40:18;;;;;;;80.77;37.97;;;;;;;;;;4933471;29;20422;-68
2021/12/06 06:42:46;;;;;;;86.23;41.50;;;3.60;99.90;;;;;;4933328;29;20429;-68
2021/12/06 06:45:16;;;;;;;97.07;43.73;;;3.70;99.90;;;;;;4933534;29;20462;-68
2021/12/06 06:47:42;;;;;;;80.30;39.07;;;3.60;99.90;;;;;;4933388;29;20127;-68
2021/12/06 06:50:08;;;;;;;83.40;39.43;;;;;;;;;;4933746;29;20103;-68
2021/12/06 06:52:33;;;;;;;97.13;48.03;;;3.70;99.90;;;;;;4933699;29;20035;-68
2021/12/06 06:55:00;;;;;;;89.20;43.03;;;3.70;99.90;;;;;;4933405;29;20384;-68
2021/12/06 06:57:26;;;;;;;85.77;41.23;;;3.80;99.90;;;;;;4933362;29;20083;-68
2021/12/06 06:59:52;;;;;;;94.87;44.33;;;;;;;;;;4933549;29;20030;-68
2021/12/06 07:02:17;;;;;;;90.27;48.43;;;3.80;99.90;;;;;;4933836;29;20036;-68
2021/12/06 07:04:43;;;;;;;86.87;44.43;;;;;;;;;;4933399;29;20481;-68
2021/12/06 07:07:09;;;;;;;90.97;43.93;;;3.80;99.90;;;;;;4932957;29;20438;-69
2021/12/06 07:09:34;;;;;;;99.40;46.37;;;3.90;99.90;;;;;;4927667;29;20086;-68
2021/12/06 07:12:00;;;;;;;89.00;45.07;;;3.90;99.90;;;;;;4922452;29;20095;-68
2021/12/06 07:14:26;;;;;;;87.77;41.83;;;4.10;99.90;;;;;;4933420;29;20028;-69
2021/12/06 07:16:52;;;;;;;76.03;37.40;;;4.00;99.90;;;;;;4932563;29;20047;-69
2021/12/06 07:19:18;;;;;;;73.63;37.20;;;;;;;;;;4933022;29;20339;-69
2021/12/06 07:21:44;;;;;;;88.40;42.70;;;4.20;99.90;;;;;;4931454;29;20098;-69
2021/12/06 07:24:10;;;;;;;93.93;46.70;;;4.30;99.90;;;;;;4932002;29;20163;-69
2021/12/06 07:26:36;;;;;;;82.83;42.47;;;4.10;99.90;;;;;;4933010;29;20099;-69
2021/12/06 07:29:02;;;;;;;78.10;40.07;;;4.10;99.90;;;;;;4927897;29;20561;-69
2021/12/06 07:31:29;;;;;;;76.90;40.83;;;;;;;;;;4947624;28;20028;-69
2021/12/06 07:33:55;;;;;;;84.00;44.53;;;;;;;;;;4931117;29;20027;-69
2021/12/06 07:36:23;;;;;;;75.00;39.17;;;4.20;99.90;;;;;;4932719;29;20042;-69
2021/12/06 07:38:50;;;;;;;80.83;40.53;;;;;;;;;;4925650;29;20339;-70
2021/12/06 07:41:17;;;;;;;94.63;45.17;;;4.20;99.90;;;;;;4951294;28;20029;-69
2021/12/06 07:43:43;;;;;;;92.77;47.33;;;;;;;;;;4951011;29;20035;-70
2021/12/06 07:46:09;;;;;;;88.37;44.70;;;4.10;99.90;;;;;;4949251;29;20892;-70
2021/12/06 07:48:35;;;;;;;75.23;39.90;;;;;;;;;;4945400;29;20028;-69
2021/12/06 07:51:02;;;;;;;79.23;42.40;;;4.30;99.90;;;;;;4931850;29;20082;-70
2021/12/06 07:53:29;;;;;;;78.87;41.90;;;4.10;99.90;;;;;;4931401;29;20477;-69
2021/12/06 07:55:55;;;;;;;78.83;42.53;;;4.20;99.90;;;;;;4932058;29;20035;-69
2021/12/06 07:58:21;;;;;;;91.53;44.67;;;4.20;99.90;;;;;;4929977;29;20122;-69
2021/12/06 08:00:48;;;;;;;69.67;40.20;;;4.10;99.90;;;;;;4931623;29;20106;-70
2021/12/06 08:03:15;;;;;;;70.33;39.67;;;4.30;99.90;;;;;;4932433;29;20027;-70
2021/12/06 08:05:44;;;;;;;72.63;40.87;;;4.10;99.90;;;;;;4926998;29;20433;-70
2021/12/06 08:08:18;;;;;;;73.50;40.13;;;4.20;99.90;;;;;;4930987;29;20054;-70
2021/12/06 08:10:48;;;;;;;67.70;37.35;;;4.20;99.90;;;;;;4932231;29;20050;-71
2021/12/06 08:13:18;;;;;;;74.13;41.03;;;4.00;99.90;;;;;;4945422;29;20027;-70
2021/12/06 08:15:44;;;;;;;70.47;38.73;;;;;;;;;;4925620;29;20024;-70
2021/12/06 08:18:11;;;;;;;72.40;39.47;;;4.20;99.90;;;;;;4928175;29;21090;-69
2021/12/06 08:20:37;;;;;;;68.73;41.23;;;;;;;;;;4946284;28;20023;-70
2021/12/06 08:23:05;;;;;;;73.13;40.27;;;4.20;99.90;;;;;;4942695;28;20080;-70
2021/12/06 08:25:31;;;;;;;74.00;41.90;;;4.30;99.90;;;;;;4919367;29;21004;-70
2021/12/06 08:27:56;;;;;;;70.63;40.27;;;;;;;;;;4918198;29;20508;-69
2021/12/06 08:30:24;;;;;;;75.33;44.50;;;4.40;99.90;;;;;;4930236;29;20106;-70
2021/12/06 08:32:52;;;;;;;65.30;39.57;;;4.30;99.90;;;;;;4929739;29;20120;-69
2021/12/06 08:35:18;;;;;;;75.87;40.77;;;4.20;99.90;;;;;;4943720;29;20027;-70
2021/12/06 08:37:45;;;;;;;77.43;43.30;;;4.20;99.90;;;;;;4948826;29;20057;-70
2021/12/06 08:40:12;;;;;;;72.90;40.30;;;4.20;99.90;;;;;;4932922;29;20163;-69
2021/12/06 08:42:37;;;;;;;66.17;39.03;;;4.30;99.90;;;;;;4930827;29;20171;-70
2021/12/06 08:45:04;;;;;;;78.93;44.20;;;4.30;99.90;;;;;;4931391;29;20106;-69
2021/12/06 08:47:30;;;;;;;72.63;40.53;;;4.30;99.90;;;;;;4936572;29;20035;-69
2021/12/06 08:49:55;;;;;;;71.67;40.70;;;4.20;99.90;;;;;;4949924;29;20031;-70
2021/12/06 08:52:21;;;;;;;74.13;41.30;;;;;;;;;;4943543;28;20027;-69
2021/12/06 08:54:47;;;;;;;69.73;38.33;;;;;;;;;;4936983;28;20103;-70
2021/12/06 08:57:14;;;;;;;71.13;39.83;;;;;;;;;;4947602;29;20031;-70
2021/12/06 08:59:39;;;;;;;61.03;36.17;;;4.40;99.90;;;;;;4949101;28;20050;-69
2021/12/06 09:02:05;;;;;;;60.23;38.37;;;;;;;;;;4949689;28;20035;-70
2021/12/06 09:04:34;;;;;;;67.23;39.07;;;4.40;99.90;;;;;;4940659;28;20028;-70
2021/12/06 09:07:01;;;;;;;67.80;40.13;;;4.20;99.90;;;;;;4933122;29;20043;-69
2021/12/06 09:09:28;;;;;;;59.33;36.73;;;4.40;99.90;;;;;;4934960;29;20445;-70
2021/12/06 09:11:56;;;;;;;64.63;38.53;;;4.40;99.90;;;;;;4934280;29;20118;-69
2021/12/06 09:14:23;;;;;;;68.43;38.90;;;4.40;99.90;;;;;;4934717;29;20082;-69
2021/12/06 09:16:49;;;;;;;70.00;44.47;;;4.40;99.90;;;;;;4934616;29;20027;-70
2021/12/06 09:19:15;;;;;;;63.57;39.57;;;4.40;99.90;;;;;;4935049;29;20453;-70
2021/12/06 09:21:43;;;;;;;58.87;38.77;;;4.40;99.90;;;;;;4934289;29;20448;-70
2021/12/06 09:24:17;;;;;;;65.57;41.00;;;4.60;99.90;;;;;;4934941;29;20059;-70
2021/12/06 09:26:44;;;;;;;72.88;41.25;;;4.30;99.90;;;;;;4935170;29;20039;-70
2021/12/06 09:29:10;;;;;;;68.20;42.17;;;4.40;99.90;;;;;;4934432;29;20430;-70
2021/12/06 09:31:36;;;;;;;58.80;36.40;;;4.40;99.90;;;;;;4941908;28;20034;-69
2021/12/06 09:34:02;;;;;;;59.03;38.13;;;4.10;99.90;;;;;;4940543;29;20028;-70
2021/12/06 09:36:28;;;;;;;62.77;40.37;;;;;;;;;;4933811;29;20035;-70
2021/12/06 09:38:54;;;;;;;62.17;39.27;;;4.40;99.90;;;;;;4933917;29;20045;-70
2021/12/06 09:41:25;;;;;;;62.10;38.47;;;4.50;99.90;;;;;;4932860;29;20111;-70
2021/12/06 09:43:54;;;;;;;67.00;43.50;;;4.40;99.90;;;;;;4932712;29;20129;-70
2021/12/06 09:46:21;;;;;;;63.43;41.47;;;4.50;99.90;;;;;;4931943;29;20039;-69
2021/12/06 09:48:47;;;;;;;66.47;42.00;;;4.40;99.90;;;;;;4934128;29;20487;-70
2021/12/06 09:51:17;;;;;;;78.53;44.90;;;4.50;99.90;;;;;;4935742;29;20543;-70
2021/12/06 09:53:46;;;;;;;65.90;42.27;;;4.40;99.90;;;;;;4934059;29;20535;-69
2021/12/06 09:56:22;;;;;;;65.90;41.23;;;4.40;99.90;;;;;;4938028;29;20134;-70
2021/12/06 09:58:48;;;;;;;62.03;39.27;;;4.50;99.90;;;;;;4934466;29;20028;-69
2021/12/06 10:01:21;;;;;;;59.67;37.80;;;4.40;99.90;;;;;;4933832;29;20140;-69
2021/12/06 10:03:48;;;;;;;59.70;39.17;;;4.50;99.90;;;;;;4928797;29;20032;-69
2021/12/06 10:06:16;;;;;;;55.20;37.30;;;4.40;99.90;;;;;;4930314;29;20040;-69
2021/12/06 10:08:44;;;;;;;52.93;35.23;;;4.50;99.90;;;;;;4934357;29;20099;-69
2021/12/06 10:11:12;;;;;;;62.00;39.13;;;4.60;99.90;;;;;;4933759;29;20500;-69
2021/12/06 10:13:39;;;;;;;66.30;42.50;;;5.10;99.90;;;;;;4934160;29;20035;-69
2021/12/06 10:16:05;;;;;;;63.07;41.33;;;3.90;99.90;;;;;;4932810;29;20027;-69
2021/12/06 10:18:31;;;;;;;75.47;45.60;;;4.50;99.90;;;;;;4932292;29;20079;-69
2021/12/06 10:20:57;;;;;;;60.00;39.93;;;4.10;99.90;;;;;;4933371;29;20429;-69
2021/12/06 10:23:23;;;;;;;61.27;40.60;;;;;;;;;;4932314;29;20131;-69
2021/12/06 10:25:51;;;;;;;69.70;43.43;;;4.60;99.90;;;;;;4933567;29;20050;-69
2021/12/06 10:28:19;;;;;;;64.40;40.57;;;4.60;99.90;;;;;;4933828;29;20028;-69
2021/12/06 10:30:49;;;;;;;64.00;39.73;;;4.50;99.90;;;;;;4933744;29;20110;-69
2021/12/06 10:33:21;;;;;;;60.00;40.33;;;4.60;99.90;;;;;;4933720;29;20115;-69
2021/12/06 10:35:51;;;;;;;56.10;38.67;;;4.60;99.90;;;;;;4933482;29;20497;-69
2021/12/06 10:38:23;;;;;;;60.40;38.67;;;4.60;99.90;;;;;;4927762;29;20103;-69
2021/12/06 10:40:54;;;;;;;64.03;39.40;;;4.60;99.90;;;;;;4932316;29;20030;-69
2021/12/06 10:43:20;;;;;;;59.17;38.47;;;;;;;;;;4933926;29;20032;-69
2021/12/06 10:45:49;;;;;;;57.10;36.57;;;4.60;99.90;;;;;;4933661;29;20477;-69
2021/12/06 10:48:19;;;;;;;54.20;37.63;;;4.80;99.90;;;;;;4933216;29;20060;-69
2021/12/06 10:50:50;;;;;;;66.87;40.17;;;4.70;99.90;;;;;;4932220;29;20122;-69
2021/12/06 10:53:17;;;;;;;57.97;36.10;;;4.60;99.90;;;;;;4929411;29;20028;-69
2021/12/06 10:55:47;;;;;;;56.97;35.67;;;4.60;99.90;;;;;;4933447;29;20044;-70
2021/12/06 10:58:18;;;;;;;63.57;40.13;;;4.80;99.90;;;;;;4933268;29;20118;-70
2021/12/06 11:00:51;;;;;;;55.00;36.70;;;5.00;99.90;;;;;;4932874;29;20088;-70
2021/12/06 11:03:29;;;;;;;62.03;38.95;;;4.60;99.90;;;;;;4930996;29;20024;-70
2021/12/06 11:06:03;;;;;;;65.37;36.10;;;4.70;99.90;;;;;;4927820;29;20564;-70
2021/12/06 11:08:35;;;;;;;69.83;39.53;;;4.70;99.90;;;;;;4925342;29;20031;-70
2021/12/06 11:11:04;;;;;;;67.87;37.87;;;4.80;99.90;;;;;;4932347;29;20052;-70
2021/12/06 11:13:33;;;;;;;66.57;38.87;;;4.60;99.90;;;;;;4931875;29;20081;-69
2021/12/06 11:16:02;;;;;;;59.37;33.77;;;4.50;99.90;;;;;;4932556;29;20477;-70
2021/12/06 11:18:44;;;;;;;71.47;37.13;;;4.70;99.90;;;;;;4933239;29;20085;-70
2021/12/06 11:21:29;;;;;;;77.70;38.37;;;4.30;99.90;;;;;;4930925;29;20035;-71
2021/12/06 11:24:02;;;;;;;73.97;38.30;;;4.60;99.90;;;;;;4931505;29;20110;-71
2021/12/06 11:26:28;;;;;;;81.00;37.20;;;4.70;99.90;;;;;;4932548;29;20039;-70
2021/12/06 11:28:55;;;;;;;71.67;34.10;;;4.60;99.90;;;;;;4932524;29;20505;-70
2021/12/06 11:31:21;;;;;;;67.03;35.80;;;4.70;99.90;;;;;;4931756;29;20031;-70
2021/12/06 11:34:01;;;;;;;59.60;31.97;;;4.70;99.90;;;;;;4933000;29;20067;-71
2021/12/06 11:36:28;;;;;;;60.73;31.23;;;4.50;99.90;;;;;;4932946;29;20027;-70
2021/12/06 11:39:19;;;;;;;60.63;30.10;;;4.40;99.90;;;;;;4946693;29;20036;-71
2021/12/06 11:41:50;;;;;;;64.20;32.10;;;4.70;99.90;;;;;;4930298;29;20037;-70
2021/12/06 11:44:19;;;;;;;70.60;37.50;;;4.60;99.90;;;;;;4928169;29;20118;-70
2021/12/06 11:46:45;;;;;;;59.23;31.83;;;4.70;99.90;;;;;;4931673;29;20127;-71
2021/12/06 11:49:25;;;;;;;60.83;33.33;;;4.60;99.90;;;;;;4924253;29;20115;-71
2021/12/06 11:51:51;;;;;;;58.43;30.93;;;4.70;99.90;;;;;;4913630;29;20036;-71
2021/12/06 11:54:16;;;;;;;63.57;29.73;;;4.70;99.90;;;;;;4914110;29;20481;-71
2021/12/06 11:56:48;;;;;;;58.80;30.87;;;4.70;99.90;;;;;;4913695;29;20079;-70
2021/12/06 11:59:16;;;;;;;58.00;30.00;;;5.10;99.90;;;;;;4932602;29;20438;-70
2021/12/06 12:01:55;;;;;;;55.27;26.67;;;4.40;99.90;;;;;;4932325;29;20020;-71
2021/12/06 12:04:24;;;;;;;49.20;25.80;;;4.40;99.90;;;;;;4929417;29;20047;-70
2021/12/06 12:07:01;;;;;;;68.83;30.43;;;4.70;99.90;;;;;;4931596;29;20412;-70
2021/12/06 12:09:29;;;;;;;50.40;27.47;;;4.20;99.90;;;;;;4913517;29;20024;-70
2021/12/06 12:12:20;;;;;;;55.10;29.93;;;4.60;99.90;;;;;;4913119;29;20671;-71
2021/12/06 12:14:58;;;;;;;49.83;27.53;;;4.50;99.90;;;;;;4923457;29;20572;-70
2021/12/06 12:17:30;;;;;;;46.80;26.27;;;4.30;99.90;;;;;;4931767;29;20066;-71
2021/12/06 12:19:58;;;;;;;53.63;29.27;;;4.60;99.90;;;;;;4930831;29;20437;-71
2021/12/06 12:22:25;;;;;;;44.97;25.63;;;4.20;99.90;;;;;;4931783;29;20024;-70
2021/12/06 12:24:56;;;;;;;44.53;26.83;;;4.50;99.90;;;;;;4931525;29;20380;-70
2021/12/06 12:27:33;;;;;;;49.40;26.70;;;4.40;99.90;;;;;;4931929;29;20043;-71
2021/12/06 12:30:00;;;;;;;48.23;26.37;;;4.40;99.90;;;;;;4930936;28;20457;-70
2021/12/06 12:32:28;;;;;;;45.00;24.07;;;4.40;99.90;;;;;;4926026;29;20070;-71
2021/12/06 12:34:57;;;;;;;44.33;24.50;;;4.50;99.90;;;;;;4912555;29;20031;-70
2021/12/06 12:37:23;;;;;;;41.23;26.03;;;4.40;99.90;;;;;;4912852;29;20032;-71
2021/12/06 12:40:06;;;;;;;44.57;25.40;;;4.40;99.90;;;;;;4925613;29;20090;-70
2021/12/06 12:42:32;;;;;;;42.57;23.20;;;4.40;99.90;;;;;;4932025;29;20032;-70
2021/12/06 12:45:00;;;;;;;43.20;24.97;;;4.90;99.90;;;;;;4930865;29;20111;-71
2021/12/06 12:47:29;;;;;;;39.67;23.37;;;4.50;99.90;;;;;;4930820;29;20043;-70
2021/12/06 12:49:59;;;;;;;40.83;24.03;;;4.50;99.90;;;;;;4931349;29;20055;-70
2021/12/06 12:52:46;;;;;;;42.27;23.87;;;4.40;99.90;;;;;;4931911;29;20404;-70
2021/12/06 12:55:28;;;;;;;38.80;23.90;;;4.40;99.90;;;;;;4931674;29;20644;-71
2021/12/06 12:58:14;;;;;;;56.17;27.30;;;4.30;99.90;;;;;;4930531;29;20465;-71
2021/12/06 13:01:01;;;;;;;43.60;22.93;;;4.50;99.90;;;;;;4931822;29;20036;-71
2021/12/06 13:03:50;;;;;;;44.17;22.97;;;4.50;99.90;;;;;;4930906;29;20023;-71
2021/12/06 13:06:26;;;;;;;44.77;25.07;;;4.50;99.90;;;;;;4912322;29;20064;-71
2021/12/06 13:08:56;;;;;;;53.60;27.13;;;4.50;99.90;;;;;;4930566;29;20024;-71
2021/12/06 13:11:25;;;;;;;54.43;27.70;;;4.60;99.90;;;;;;4931311;29;20048;-71
2021/12/06 13:13:51;;;;;;;51.47;26.37;;;;;;;;;;4930428;29;20031;-71
2021/12/06 13:16:55;;;;;;;47.97;27.57;;;4.40;99.90;;;;;;4931301;29;20421;-71